sensor_id;sensor_type;location;lat;lon;timestamp;P1;durP1;ratioP1;P2;durP2;ratioP2
81648;SDS011;71057;51.436;6.768;2024-01-11T00:01:25;32.10;;;17.93;;
81648;SDS011;71057;51.436;6.768;2024-01-11T00:03:51;33.57;;;17.77;;
81648;SDS011;71057;51.436;6.768;2024-01-11T00:06:16;33.57;;;19.00;;
81648;SDS011;71057;51.436;6.768;2024-01-11T00:08:41;33.85;;;18.63;;
81648;SDS011;71057;51.436;6.768;2024-01-11T00:11:06;28.40;;;18.90;;
81648;SDS011;71057;51.436;6.768;2024-01-11T00:13:31;31.00;;;18.77;;
81648;SDS011;71057;51.436;6.768;2024-01-11T00:15:57;32.33;;;19.17;;
81648;SDS011;71057;51.436;6.768;2024-01-11T00:18:22;31.37;;;17.83;;
81648;SDS011;71057;51.436;6.768;2024-01-11T00:20:47;34.07;;;17.10;;
81648;SDS011;71057;51.436;6.768;2024-01-11T00:23:12;30.20;;;18.30;;
81648;SDS011;71057;51.436;6.768;2024-01-11T00:25:38;31.97;;;19.23;;
81648;SDS011;71057;51.436;6.768;2024-01-11T00:28:03;35.70;;;18.10;;
81648;SDS011;71057;51.436;6.768;2024-01-11T00:30:28;32.70;;;16.52;;
81648;SDS011;71057;51.436;6.768;2024-01-11T00:32:53;31.60;;;18.87;;
81648;SDS011;71057;51.436;6.768;2024-01-11T00:35:18;33.37;;;18.80;;
81648;SDS011;71057;51.436;6.768;2024-01-11T00:37:44;34.85;;;17.88;;
81648;SDS011;71057;51.436;6.768;2024-01-11T00:40:09;34.50;;;19.13;;
81648;SDS011;71057;51.436;6.768;2024-01-11T00:42:34;36.85;;;19.00;;
81648;SDS011;71057;51.436;6.768;2024-01-11T00:45:00;34.10;;;19.97;;
81648;SDS011;71057;51.436;6.768;2024-01-11T00:47:25;33.10;;;19.37;;
81648;SDS011;71057;51.436;6.768;2024-01-11T00:49:50;31.77;;;18.80;;
81648;SDS011;71057;51.436;6.768;2024-01-11T00:52:15;32.60;;;19.55;;
81648;SDS011;71057;51.436;6.768;2024-01-11T00:54:41;32.47;;;17.87;;
81648;SDS011;71057;51.436;6.768;2024-01-11T00:57:06;36.40;;;18.30;;
81648;SDS011;71057;51.436;6.768;2024-01-11T00:59:31;35.33;;;18.17;;
81648;SDS011;71057;51.436;6.768;2024-01-11T01:01:56;33.37;;;18.87;;
81648;SDS011;71057;51.436;6.768;2024-01-11T01:04:21;33.50;;;18.70;;
81648;SDS011;71057;51.436;6.768;2024-01-11T01:06:46;33.10;;;17.57;;
81648;SDS011;71057;51.436;6.768;2024-01-11T01:09:12;31.27;;;17.70;;
81648;SDS011;71057;51.436;6.768;2024-01-11T01:11:38;32.60;;;18.05;;
81648;SDS011;71057;51.436;6.768;2024-01-11T01:14:03;33.93;;;18.70;;
81648;SDS011;71057;51.436;6.768;2024-01-11T01:16:28;39.33;;;19.10;;
81648;SDS011;71057;51.436;6.768;2024-01-11T01:18:53;33.47;;;18.23;;
81648;SDS011;71057;51.436;6.768;2024-01-11T01:21:19;34.07;;;19.27;;
81648;SDS011;71057;51.436;6.768;2024-01-11T01:23:44;35.87;;;20.47;;
81648;SDS011;71057;51.436;6.768;2024-01-11T01:26:09;32.90;;;19.80;;
81648;SDS011;71057;51.436;6.768;2024-01-11T01:28:34;36.57;;;18.10;;
81648;SDS011;71057;51.436;6.768;2024-01-11T01:30:59;35.77;;;18.87;;
81648;SDS011;71057;51.436;6.768;2024-01-11T01:33:24;39.67;;;19.97;;
81648;SDS011;71057;51.436;6.768;2024-01-11T01:35:50;31.03;;;18.27;;
81648;SDS011;71057;51.436;6.768;2024-01-11T01:38:15;33.67;;;20.80;;
81648;SDS011;71057;51.436;6.768;2024-01-11T01:40:42;38.97;;;20.05;;
81648;SDS011;71057;51.436;6.768;2024-01-11T01:43:07;35.33;;;19.33;;
81648;SDS011;71057;51.436;6.768;2024-01-11T01:45:35;32.75;;;19.52;;
81648;SDS011;71057;51.436;6.768;2024-01-11T01:48:01;34.57;;;20.20;;
81648;SDS011;71057;51.436;6.768;2024-01-11T01:50:26;35.20;;;18.00;;
81648;SDS011;71057;51.436;6.768;2024-01-11T01:52:51;39.20;;;19.87;;
81648;SDS011;71057;51.436;6.768;2024-01-11T01:55:17;32.80;;;20.27;;
81648;SDS011;71057;51.436;6.768;2024-01-11T01:57:42;37.35;;;19.73;;
81648;SDS011;71057;51.436;6.768;2024-01-11T02:00:08;42.83;;;22.83;;
81648;SDS011;71057;51.436;6.768;2024-01-11T02:02:35;39.72;;;20.90;;
81648;SDS011;71057;51.436;6.768;2024-01-11T02:05:00;41.70;;;20.97;;
81648;SDS011;71057;51.436;6.768;2024-01-11T02:07:26;40.40;;;20.10;;
81648;SDS011;71057;51.436;6.768;2024-01-11T02:09:51;36.87;;;19.97;;
81648;SDS011;71057;51.436;6.768;2024-01-11T02:12:16;35.13;;;18.63;;
81648;SDS011;71057;51.436;6.768;2024-01-11T02:14:41;36.00;;;20.17;;
81648;SDS011;71057;51.436;6.768;2024-01-11T02:17:07;37.87;;;20.37;;
81648;SDS011;71057;51.436;6.768;2024-01-11T02:19:32;40.80;;;21.13;;
81648;SDS011;71057;51.436;6.768;2024-01-11T02:22:00;36.53;;;21.17;;
81648;SDS011;71057;51.436;6.768;2024-01-11T02:24:25;37.70;;;20.50;;
81648;SDS011;71057;51.436;6.768;2024-01-11T02:27:00;38.13;;;20.40;;
81648;SDS011;71057;51.436;6.768;2024-01-11T02:29:26;38.90;;;21.02;;
81648;SDS011;71057;51.436;6.768;2024-01-11T02:31:51;36.72;;;18.88;;
81648;SDS011;71057;51.436;6.768;2024-01-11T02:34:16;39.80;;;21.33;;
81648;SDS011;71057;51.436;6.768;2024-01-11T02:36:41;36.73;;;20.07;;
81648;SDS011;71057;51.436;6.768;2024-01-11T02:39:07;37.50;;;20.92;;
81648;SDS011;71057;51.436;6.768;2024-01-11T02:41:32;36.43;;;21.50;;
81648;SDS011;71057;51.436;6.768;2024-01-11T02:43:58;41.15;;;20.17;;
81648;SDS011;71057;51.436;6.768;2024-01-11T02:46:23;39.90;;;20.95;;
81648;SDS011;71057;51.436;6.768;2024-01-11T02:48:49;37.93;;;21.17;;
81648;SDS011;71057;51.436;6.768;2024-01-11T02:51:14;45.63;;;22.53;;
81648;SDS011;71057;51.436;6.768;2024-01-11T02:53:39;33.50;;;18.90;;
81648;SDS011;71057;51.436;6.768;2024-01-11T02:56:04;33.27;;;19.87;;
81648;SDS011;71057;51.436;6.768;2024-01-11T02:58:29;34.93;;;19.83;;
81648;SDS011;71057;51.436;6.768;2024-01-11T03:00:55;36.97;;;20.20;;
81648;SDS011;71057;51.436;6.768;2024-01-11T03:03:20;34.97;;;19.33;;
81648;SDS011;71057;51.436;6.768;2024-01-11T03:05:46;35.40;;;18.85;;
81648;SDS011;71057;51.436;6.768;2024-01-11T03:08:11;38.27;;;20.10;;
81648;SDS011;71057;51.436;6.768;2024-01-11T03:10:39;34.00;;;20.23;;
81648;SDS011;71057;51.436;6.768;2024-01-11T03:13:05;36.30;;;19.73;;
81648;SDS011;71057;51.436;6.768;2024-01-11T03:15:30;38.55;;;20.13;;
81648;SDS011;71057;51.436;6.768;2024-01-11T03:17:55;38.33;;;19.70;;
81648;SDS011;71057;51.436;6.768;2024-01-11T03:20:20;36.73;;;20.63;;
81648;SDS011;71057;51.436;6.768;2024-01-11T03:22:49;33.42;;;18.73;;
81648;SDS011;71057;51.436;6.768;2024-01-11T03:25:14;39.97;;;19.27;;
81648;SDS011;71057;51.436;6.768;2024-01-11T03:27:40;35.03;;;18.58;;
81648;SDS011;71057;51.436;6.768;2024-01-11T03:30:05;39.23;;;19.60;;
81648;SDS011;71057;51.436;6.768;2024-01-11T03:32:31;36.55;;;19.73;;
81648;SDS011;71057;51.436;6.768;2024-01-11T03:34:56;39.37;;;21.67;;
81648;SDS011;71057;51.436;6.768;2024-01-11T03:37:21;37.07;;;18.70;;
81648;SDS011;71057;51.436;6.768;2024-01-11T03:39:46;34.73;;;18.73;;
81648;SDS011;71057;51.436;6.768;2024-01-11T03:42:12;30.53;;;17.83;;
81648;SDS011;71057;51.436;6.768;2024-01-11T03:44:37;40.37;;;20.97;;
81648;SDS011;71057;51.436;6.768;2024-01-11T03:47:02;37.03;;;20.27;;
81648;SDS011;71057;51.436;6.768;2024-01-11T03:49:28;37.50;;;20.40;;
81648;SDS011;71057;51.436;6.768;2024-01-11T03:51:53;37.27;;;20.50;;
81648;SDS011;71057;51.436;6.768;2024-01-11T03:54:18;36.97;;;20.70;;
81648;SDS011;71057;51.436;6.768;2024-01-11T03:56:43;32.23;;;18.73;;
81648;SDS011;71057;51.436;6.768;2024-01-11T03:59:10;35.43;;;20.17;;
81648;SDS011;71057;51.436;6.768;2024-01-11T04:01:38;35.10;;;21.58;;
81648;SDS011;71057;51.436;6.768;2024-01-11T04:04:04;30.88;;;18.75;;
81648;SDS011;71057;51.436;6.768;2024-01-11T04:06:29;38.57;;;21.00;;
81648;SDS011;71057;51.436;6.768;2024-01-11T04:08:54;44.50;;;20.93;;
81648;SDS011;71057;51.436;6.768;2024-01-11T04:11:19;34.83;;;20.15;;
81648;SDS011;71057;51.436;6.768;2024-01-11T04:13:45;38.50;;;20.57;;
81648;SDS011;71057;51.436;6.768;2024-01-11T04:16:10;38.30;;;19.80;;
81648;SDS011;71057;51.436;6.768;2024-01-11T04:18:35;34.57;;;20.00;;
81648;SDS011;71057;51.436;6.768;2024-01-11T04:21:00;36.60;;;20.87;;
81648;SDS011;71057;51.436;6.768;2024-01-11T04:23:25;31.27;;;18.27;;
81648;SDS011;71057;51.436;6.768;2024-01-11T04:25:51;39.40;;;19.60;;
81648;SDS011;71057;51.436;6.768;2024-01-11T04:28:18;35.85;;;21.25;;
81648;SDS011;71057;51.436;6.768;2024-01-11T04:30:44;39.80;;;19.93;;
81648;SDS011;71057;51.436;6.768;2024-01-11T04:33:09;39.70;;;20.87;;
81648;SDS011;71057;51.436;6.768;2024-01-11T04:35:35;37.78;;;17.40;;
81648;SDS011;71057;51.436;6.768;2024-01-11T04:38:00;37.27;;;18.73;;
81648;SDS011;71057;51.436;6.768;2024-01-11T04:40:25;35.53;;;19.70;;
81648;SDS011;71057;51.436;6.768;2024-01-11T04:42:50;35.97;;;20.17;;
81648;SDS011;71057;51.436;6.768;2024-01-11T04:45:15;35.50;;;18.37;;
81648;SDS011;71057;51.436;6.768;2024-01-11T04:47:41;38.37;;;19.57;;
81648;SDS011;71057;51.436;6.768;2024-01-11T04:50:06;32.87;;;19.00;;
81648;SDS011;71057;51.436;6.768;2024-01-11T04:52:31;34.70;;;18.30;;
81648;SDS011;71057;51.436;6.768;2024-01-11T04:54:57;33.00;;;19.70;;
81648;SDS011;71057;51.436;6.768;2024-01-11T04:57:22;37.33;;;19.90;;
81648;SDS011;71057;51.436;6.768;2024-01-11T04:59:47;39.03;;;20.67;;
81648;SDS011;71057;51.436;6.768;2024-01-11T05:02:13;36.73;;;19.73;;
81648;SDS011;71057;51.436;6.768;2024-01-11T05:04:38;42.63;;;19.67;;
81648;SDS011;71057;51.436;6.768;2024-01-11T05:07:03;35.40;;;20.33;;
81648;SDS011;71057;51.436;6.768;2024-01-11T05:09:28;37.50;;;18.80;;
81648;SDS011;71057;51.436;6.768;2024-01-11T05:11:53;37.13;;;20.27;;
81648;SDS011;71057;51.436;6.768;2024-01-11T05:14:18;36.23;;;19.43;;
81648;SDS011;71057;51.436;6.768;2024-01-11T05:16:44;37.90;;;21.20;;
81648;SDS011;71057;51.436;6.768;2024-01-11T05:19:09;36.97;;;17.58;;
81648;SDS011;71057;51.436;6.768;2024-01-11T05:21:35;39.90;;;21.17;;
81648;SDS011;71057;51.436;6.768;2024-01-11T05:24:00;40.63;;;20.35;;
81648;SDS011;71057;51.436;6.768;2024-01-11T05:26:26;39.67;;;20.52;;
81648;SDS011;71057;51.436;6.768;2024-01-11T05:28:51;38.33;;;22.73;;
81648;SDS011;71057;51.436;6.768;2024-01-11T05:31:16;43.77;;;21.40;;
81648;SDS011;71057;51.436;6.768;2024-01-11T05:33:41;40.07;;;22.07;;
81648;SDS011;71057;51.436;6.768;2024-01-11T05:36:07;38.97;;;22.17;;
81648;SDS011;71057;51.436;6.768;2024-01-11T05:38:33;46.95;;;21.50;;
81648;SDS011;71057;51.436;6.768;2024-01-11T05:40:58;41.28;;;20.15;;
81648;SDS011;71057;51.436;6.768;2024-01-11T05:43:23;42.42;;;20.88;;
81648;SDS011;71057;51.436;6.768;2024-01-11T05:45:49;34.17;;;18.77;;
81648;SDS011;71057;51.436;6.768;2024-01-11T05:48:14;35.65;;;19.27;;
81648;SDS011;71057;51.436;6.768;2024-01-11T05:50:40;41.90;;;19.38;;
81648;SDS011;71057;51.436;6.768;2024-01-11T05:53:05;36.87;;;20.57;;
81648;SDS011;71057;51.436;6.768;2024-01-11T05:55:31;34.33;;;18.50;;
81648;SDS011;71057;51.436;6.768;2024-01-11T05:57:56;43.47;;;20.93;;
81648;SDS011;71057;51.436;6.768;2024-01-11T06:00:21;37.13;;;21.53;;
81648;SDS011;71057;51.436;6.768;2024-01-11T06:02:47;41.85;;;22.15;;
81648;SDS011;71057;51.436;6.768;2024-01-11T06:05:12;34.23;;;19.93;;
81648;SDS011;71057;51.436;6.768;2024-01-11T06:07:37;37.10;;;18.33;;
81648;SDS011;71057;51.436;6.768;2024-01-11T06:10:03;38.25;;;19.55;;
81648;SDS011;71057;51.436;6.768;2024-01-11T06:12:30;38.08;;;17.73;;
81648;SDS011;71057;51.436;6.768;2024-01-11T06:14:56;34.15;;;20.50;;
81648;SDS011;71057;51.436;6.768;2024-01-11T06:17:21;36.53;;;18.17;;
81648;SDS011;71057;51.436;6.768;2024-01-11T06:19:46;36.90;;;20.10;;
81648;SDS011;71057;51.436;6.768;2024-01-11T06:22:11;40.00;;;20.60;;
81648;SDS011;71057;51.436;6.768;2024-01-11T06:24:36;38.43;;;20.30;;
81648;SDS011;71057;51.436;6.768;2024-01-11T06:27:02;37.47;;;23.07;;
81648;SDS011;71057;51.436;6.768;2024-01-11T06:29:27;35.33;;;20.33;;
81648;SDS011;71057;51.436;6.768;2024-01-11T06:31:52;34.95;;;20.23;;
81648;SDS011;71057;51.436;6.768;2024-01-11T06:34:17;39.17;;;20.30;;
81648;SDS011;71057;51.436;6.768;2024-01-11T06:36:42;45.47;;;21.23;;
81648;SDS011;71057;51.436;6.768;2024-01-11T06:39:08;43.97;;;20.77;;
81648;SDS011;71057;51.436;6.768;2024-01-11T06:41:33;37.80;;;20.17;;
81648;SDS011;71057;51.436;6.768;2024-01-11T06:43:58;36.70;;;19.67;;
81648;SDS011;71057;51.436;6.768;2024-01-11T06:46:24;34.17;;;19.63;;
81648;SDS011;71057;51.436;6.768;2024-01-11T06:48:49;38.07;;;19.37;;
81648;SDS011;71057;51.436;6.768;2024-01-11T06:51:20;38.00;;;19.17;;
81648;SDS011;71057;51.436;6.768;2024-01-11T06:53:46;39.97;;;19.42;;
81648;SDS011;71057;51.436;6.768;2024-01-11T06:56:14;38.58;;;20.52;;
81648;SDS011;71057;51.436;6.768;2024-01-11T06:58:40;37.65;;;19.63;;
81648;SDS011;71057;51.436;6.768;2024-01-11T07:01:05;40.73;;;21.50;;
81648;SDS011;71057;51.436;6.768;2024-01-11T07:03:30;35.38;;;20.33;;
81648;SDS011;71057;51.436;6.768;2024-01-11T07:05:55;36.95;;;20.58;;
81648;SDS011;71057;51.436;6.768;2024-01-11T07:08:20;39.10;;;20.27;;
81648;SDS011;71057;51.436;6.768;2024-01-11T07:10:46;43.55;;;20.80;;
81648;SDS011;71057;51.436;6.768;2024-01-11T07:13:11;33.67;;;19.43;;
81648;SDS011;71057;51.436;6.768;2024-01-11T07:15:39;43.63;;;20.35;;
81648;SDS011;71057;51.436;6.768;2024-01-11T07:18:05;41.20;;;20.83;;
81648;SDS011;71057;51.436;6.768;2024-01-11T07:20:30;40.70;;;20.83;;
81648;SDS011;71057;51.436;6.768;2024-01-11T07:22:55;42.20;;;21.40;;
81648;SDS011;71057;51.436;6.768;2024-01-11T07:25:20;37.27;;;21.63;;
81648;SDS011;71057;51.436;6.768;2024-01-11T07:27:45;38.73;;;21.50;;
81648;SDS011;71057;51.436;6.768;2024-01-11T07:30:11;38.77;;;21.97;;
81648;SDS011;71057;51.436;6.768;2024-01-11T07:32:36;35.47;;;20.58;;
81648;SDS011;71057;51.436;6.768;2024-01-11T07:35:01;41.40;;;20.83;;
81648;SDS011;71057;51.436;6.768;2024-01-11T07:37:27;38.97;;;20.63;;
81648;SDS011;71057;51.436;6.768;2024-01-11T07:39:52;43.13;;;21.48;;
81648;SDS011;71057;51.436;6.768;2024-01-11T07:42:18;41.50;;;21.37;;
81648;SDS011;71057;51.436;6.768;2024-01-11T07:44:44;38.10;;;20.70;;
81648;SDS011;71057;51.436;6.768;2024-01-11T07:47:09;38.33;;;21.27;;
81648;SDS011;71057;51.436;6.768;2024-01-11T07:49:34;41.80;;;21.70;;
81648;SDS011;71057;51.436;6.768;2024-01-11T07:51:59;40.40;;;20.97;;
81648;SDS011;71057;51.436;6.768;2024-01-11T07:54:24;42.37;;;22.03;;
81648;SDS011;71057;51.436;6.768;2024-01-11T07:56:50;35.63;;;19.73;;
81648;SDS011;71057;51.436;6.768;2024-01-11T07:59:15;41.40;;;21.50;;
81648;SDS011;71057;51.436;6.768;2024-01-11T08:01:40;37.63;;;20.00;;
81648;SDS011;71057;51.436;6.768;2024-01-11T08:04:05;42.63;;;23.15;;
81648;SDS011;71057;51.436;6.768;2024-01-11T08:06:31;35.57;;;20.87;;
81648;SDS011;71057;51.436;6.768;2024-01-11T08:08:57;45.42;;;23.83;;
81648;SDS011;71057;51.436;6.768;2024-01-11T08:11:22;37.47;;;21.33;;
81648;SDS011;71057;51.436;6.768;2024-01-11T08:13:47;40.37;;;22.10;;
81648;SDS011;71057;51.436;6.768;2024-01-11T08:16:16;42.83;;;22.93;;
81648;SDS011;71057;51.436;6.768;2024-01-11T08:18:41;33.20;;;20.95;;
81648;SDS011;71057;51.436;6.768;2024-01-11T08:21:06;39.77;;;19.97;;
81648;SDS011;71057;51.436;6.768;2024-01-11T08:23:34;39.75;;;20.70;;
81648;SDS011;71057;51.436;6.768;2024-01-11T08:25:59;35.37;;;20.23;;
81648;SDS011;71057;51.436;6.768;2024-01-11T08:28:24;42.47;;;22.87;;
81648;SDS011;71057;51.436;6.768;2024-01-11T08:30:50;37.20;;;22.23;;
81648;SDS011;71057;51.436;6.768;2024-01-11T08:33:15;40.73;;;20.10;;
81648;SDS011;71057;51.436;6.768;2024-01-11T08:35:40;36.43;;;20.73;;
81648;SDS011;71057;51.436;6.768;2024-01-11T08:38:06;42.15;;;21.45;;
81648;SDS011;71057;51.436;6.768;2024-01-11T08:40:31;39.83;;;22.27;;
81648;SDS011;71057;51.436;6.768;2024-01-11T08:42:56;38.67;;;20.38;;
81648;SDS011;71057;51.436;6.768;2024-01-11T08:45:23;37.67;;;20.13;;
81648;SDS011;71057;51.436;6.768;2024-01-11T08:47:48;39.60;;;21.77;;
81648;SDS011;71057;51.436;6.768;2024-01-11T08:50:14;40.58;;;21.48;;
81648;SDS011;71057;51.436;6.768;2024-01-11T08:52:39;44.55;;;22.08;;
81648;SDS011;71057;51.436;6.768;2024-01-11T08:55:05;38.58;;;19.95;;
81648;SDS011;71057;51.436;6.768;2024-01-11T08:57:30;36.90;;;20.63;;
81648;SDS011;71057;51.436;6.768;2024-01-11T08:59:55;36.87;;;20.17;;
81648;SDS011;71057;51.436;6.768;2024-01-11T09:02:21;36.50;;;21.33;;
81648;SDS011;71057;51.436;6.768;2024-01-11T09:04:46;39.50;;;21.30;;
81648;SDS011;71057;51.436;6.768;2024-01-11T09:07:12;39.08;;;20.60;;
81648;SDS011;71057;51.436;6.768;2024-01-11T09:09:37;37.80;;;21.40;;
81648;SDS011;71057;51.436;6.768;2024-01-11T09:12:03;37.23;;;22.47;;
81648;SDS011;71057;51.436;6.768;2024-01-11T09:14:28;38.97;;;22.20;;
81648;SDS011;71057;51.436;6.768;2024-01-11T09:16:53;39.07;;;20.67;;
81648;SDS011;71057;51.436;6.768;2024-01-11T09:19:19;39.97;;;21.70;;
81648;SDS011;71057;51.436;6.768;2024-01-11T09:21:45;39.03;;;22.33;;
81648;SDS011;71057;51.436;6.768;2024-01-11T09:24:10;36.43;;;21.07;;
81648;SDS011;71057;51.436;6.768;2024-01-11T09:26:35;35.33;;;20.10;;
81648;SDS011;71057;51.436;6.768;2024-01-11T09:29:01;36.33;;;20.40;;
81648;SDS011;71057;51.436;6.768;2024-01-11T09:31:26;36.20;;;20.90;;
81648;SDS011;71057;51.436;6.768;2024-01-11T09:33:52;35.03;;;21.75;;
81648;SDS011;71057;51.436;6.768;2024-01-11T09:36:17;37.70;;;22.15;;
81648;SDS011;71057;51.436;6.768;2024-01-11T09:38:42;38.03;;;22.03;;
81648;SDS011;71057;51.436;6.768;2024-01-11T09:41:09;37.50;;;22.00;;
81648;SDS011;71057;51.436;6.768;2024-01-11T09:43:34;43.63;;;22.08;;
81648;SDS011;71057;51.436;6.768;2024-01-11T09:46:03;46.10;;;21.60;;
81648;SDS011;71057;51.436;6.768;2024-01-11T09:48:28;43.75;;;21.58;;
81648;SDS011;71057;51.436;6.768;2024-01-11T09:50:54;38.53;;;21.70;;
81648;SDS011;71057;51.436;6.768;2024-01-11T09:53:21;39.47;;;21.65;;
81648;SDS011;71057;51.436;6.768;2024-01-11T09:55:49;37.80;;;21.23;;
81648;SDS011;71057;51.436;6.768;2024-01-11T09:58:14;40.28;;;20.73;;
81648;SDS011;71057;51.436;6.768;2024-01-11T10:00:39;40.77;;;21.97;;
81648;SDS011;71057;51.436;6.768;2024-01-11T10:03:06;42.33;;;22.70;;
81648;SDS011;71057;51.436;6.768;2024-01-11T10:05:31;38.33;;;23.30;;
81648;SDS011;71057;51.436;6.768;2024-01-11T10:07:58;38.05;;;22.50;;
81648;SDS011;71057;51.436;6.768;2024-01-11T10:10:23;41.13;;;24.47;;
81648;SDS011;71057;51.436;6.768;2024-01-11T10:12:48;40.07;;;22.70;;
81648;SDS011;71057;51.436;6.768;2024-01-11T10:15:14;41.25;;;21.45;;
81648;SDS011;71057;51.436;6.768;2024-01-11T10:17:43;38.37;;;22.37;;
81648;SDS011;71057;51.436;6.768;2024-01-11T10:20:12;41.75;;;22.52;;
81648;SDS011;71057;51.436;6.768;2024-01-11T10:22:39;42.40;;;23.70;;
81648;SDS011;71057;51.436;6.768;2024-01-11T10:25:11;41.38;;;22.90;;
81648;SDS011;71057;51.436;6.768;2024-01-11T10:27:40;40.50;;;21.92;;
81648;SDS011;71057;51.436;6.768;2024-01-11T10:30:07;41.85;;;22.02;;
81648;SDS011;71057;51.436;6.768;2024-01-11T10:32:32;40.10;;;23.58;;
81648;SDS011;71057;51.436;6.768;2024-01-11T10:35:03;46.88;;;24.73;;
81648;SDS011;71057;51.436;6.768;2024-01-11T10:37:30;38.97;;;22.80;;
81648;SDS011;71057;51.436;6.768;2024-01-11T10:39:55;35.28;;;20.83;;
81648;SDS011;71057;51.436;6.768;2024-01-11T10:42:23;36.13;;;21.13;;
81648;SDS011;71057;51.436;6.768;2024-01-11T10:44:49;42.40;;;23.30;;
81648;SDS011;71057;51.436;6.768;2024-01-11T10:47:19;38.67;;;21.00;;
81648;SDS011;71057;51.436;6.768;2024-01-11T10:49:44;35.25;;;20.38;;
81648;SDS011;71057;51.436;6.768;2024-01-11T10:52:12;31.88;;;19.65;;
81648;SDS011;71057;51.436;6.768;2024-01-11T10:54:37;31.55;;;21.27;;
81648;SDS011;71057;51.436;6.768;2024-01-11T10:57:03;36.25;;;22.27;;
81648;SDS011;71057;51.436;6.768;2024-01-11T10:59:31;42.25;;;20.75;;
81648;SDS011;71057;51.436;6.768;2024-01-11T11:01:57;33.45;;;19.58;;
81648;SDS011;71057;51.436;6.768;2024-01-11T11:04:23;34.88;;;20.02;;
81648;SDS011;71057;51.436;6.768;2024-01-11T11:06:49;34.28;;;19.67;;
81648;SDS011;71057;51.436;6.768;2024-01-11T11:09:15;38.42;;;20.20;;
81648;SDS011;71057;51.436;6.768;2024-01-11T11:11:42;38.65;;;20.88;;
81648;SDS011;71057;51.436;6.768;2024-01-11T11:14:07;37.00;;;18.90;;
81648;SDS011;71057;51.436;6.768;2024-01-11T11:16:33;35.03;;;20.83;;
81648;SDS011;71057;51.436;6.768;2024-01-11T11:18:59;36.43;;;19.60;;
81648;SDS011;71057;51.436;6.768;2024-01-11T11:21:25;36.90;;;20.42;;
81648;SDS011;71057;51.436;6.768;2024-01-11T11:23:51;36.92;;;19.40;;
81648;SDS011;71057;51.436;6.768;2024-01-11T11:26:16;36.67;;;20.27;;
81648;SDS011;71057;51.436;6.768;2024-01-11T11:31:10;35.90;;;19.25;;
81648;SDS011;71057;51.436;6.768;2024-01-11T11:33:36;35.55;;;20.38;;
81648;SDS011;71057;51.436;6.768;2024-01-11T11:36:01;32.50;;;17.83;;
81648;SDS011;71057;51.436;6.768;2024-01-11T11:38:28;35.47;;;18.27;;
81648;SDS011;71057;51.436;6.768;2024-01-11T11:40:54;30.05;;;18.88;;
81648;SDS011;71057;51.436;6.768;2024-01-11T11:43:21;34.17;;;18.77;;
81648;SDS011;71057;51.436;6.768;2024-01-11T11:45:47;30.85;;;17.67;;
81648;SDS011;71057;51.436;6.768;2024-01-11T11:51:10;43.60;;;18.98;;
81648;SDS011;71057;51.436;6.768;2024-01-11T11:53:36;41.58;;;20.50;;
81648;SDS011;71057;51.436;6.768;2024-01-11T11:56:02;33.95;;;20.40;;
81648;SDS011;71057;51.436;6.768;2024-01-11T11:58:27;34.92;;;19.85;;
81648;SDS011;71057;51.436;6.768;2024-01-11T12:00:53;28.95;;;18.33;;
81648;SDS011;71057;51.436;6.768;2024-01-11T12:03:19;30.00;;;18.13;;
81648;SDS011;71057;51.436;6.768;2024-01-11T12:05:44;34.57;;;19.90;;
81648;SDS011;71057;51.436;6.768;2024-01-11T12:08:10;34.97;;;20.07;;
81648;SDS011;71057;51.436;6.768;2024-01-11T12:10:35;35.20;;;20.40;;
81648;SDS011;71057;51.436;6.768;2024-01-11T12:13:01;30.97;;;19.33;;
81648;SDS011;71057;51.436;6.768;2024-01-11T12:15:26;33.35;;;19.52;;
81648;SDS011;71057;51.436;6.768;2024-01-11T12:17:57;36.05;;;19.73;;
81648;SDS011;71057;51.436;6.768;2024-01-11T12:20:22;31.40;;;17.83;;
81648;SDS011;71057;51.436;6.768;2024-01-11T12:22:47;33.37;;;19.00;;
81648;SDS011;71057;51.436;6.768;2024-01-11T12:25:12;29.40;;;18.90;;
81648;SDS011;71057;51.436;6.768;2024-01-11T12:27:38;35.08;;;19.73;;
81648;SDS011;71057;51.436;6.768;2024-01-11T12:30:03;25.87;;;17.87;;
81648;SDS011;71057;51.436;6.768;2024-01-11T12:32:28;33.55;;;17.88;;
81648;SDS011;71057;51.436;6.768;2024-01-11T12:34:55;33.97;;;18.08;;
81648;SDS011;71057;51.436;6.768;2024-01-11T12:37:21;37.53;;;20.75;;
81648;SDS011;71057;51.436;6.768;2024-01-11T12:39:46;33.15;;;17.85;;
81648;SDS011;71057;51.436;6.768;2024-01-11T12:42:12;31.65;;;18.42;;
81648;SDS011;71057;51.436;6.768;2024-01-11T12:44:37;28.90;;;18.43;;
81648;SDS011;71057;51.436;6.768;2024-01-11T12:47:04;26.70;;;15.27;;
81648;SDS011;71057;51.436;6.768;2024-01-11T12:49:30;27.33;;;16.50;;
81648;SDS011;71057;51.436;6.768;2024-01-11T12:51:55;25.93;;;16.27;;
81648;SDS011;71057;51.436;6.768;2024-01-11T12:54:20;26.93;;;15.50;;
81648;SDS011;71057;51.436;6.768;2024-01-11T12:56:46;32.23;;;16.37;;
81648;SDS011;71057;51.436;6.768;2024-01-11T12:59:11;26.93;;;16.47;;
81648;SDS011;71057;51.436;6.768;2024-01-11T13:01:37;26.80;;;16.27;;
81648;SDS011;71057;51.436;6.768;2024-01-11T13:04:03;24.65;;;13.98;;
81648;SDS011;71057;51.436;6.768;2024-01-11T13:06:34;24.83;;;14.57;;
81648;SDS011;71057;51.436;6.768;2024-01-11T13:09:00;25.13;;;14.82;;
81648;SDS011;71057;51.436;6.768;2024-01-11T13:11:26;23.85;;;14.90;;
81648;SDS011;71057;51.436;6.768;2024-01-11T13:13:51;25.80;;;16.23;;
81648;SDS011;71057;51.436;6.768;2024-01-11T13:16:17;26.55;;;14.43;;
81648;SDS011;71057;51.436;6.768;2024-01-11T13:18:43;24.05;;;14.23;;
81648;SDS011;71057;51.436;6.768;2024-01-11T13:21:09;26.05;;;14.93;;
81648;SDS011;71057;51.436;6.768;2024-01-11T13:23:34;20.38;;;12.82;;
81648;SDS011;71057;51.436;6.768;2024-01-11T13:25:59;24.57;;;14.43;;
81648;SDS011;71057;51.436;6.768;2024-01-11T13:28:25;23.80;;;13.47;;
81648;SDS011;71057;51.436;6.768;2024-01-11T13:30:51;20.27;;;11.48;;
81648;SDS011;71057;51.436;6.768;2024-01-11T13:33:16;20.67;;;12.73;;
81648;SDS011;71057;51.436;6.768;2024-01-11T13:35:42;23.92;;;13.32;;
81648;SDS011;71057;51.436;6.768;2024-01-11T13:38:08;22.23;;;12.25;;
81648;SDS011;71057;51.436;6.768;2024-01-11T13:40:33;18.03;;;11.60;;
81648;SDS011;71057;51.436;6.768;2024-01-11T13:42:59;16.88;;;9.82;;
81648;SDS011;71057;51.436;6.768;2024-01-11T13:45:25;20.65;;;12.85;;
81648;SDS011;71057;51.436;6.768;2024-01-11T13:47:50;17.92;;;11.23;;
81648;SDS011;71057;51.436;6.768;2024-01-11T13:50:16;17.10;;;10.98;;
81648;SDS011;71057;51.436;6.768;2024-01-11T13:52:41;23.80;;;10.82;;
81648;SDS011;71057;51.436;6.768;2024-01-11T13:55:07;22.70;;;10.73;;
81648;SDS011;71057;51.436;6.768;2024-01-11T13:57:32;22.08;;;10.63;;
81648;SDS011;71057;51.436;6.768;2024-01-11T13:59:59;19.52;;;11.07;;
81648;SDS011;71057;51.436;6.768;2024-01-11T14:02:24;18.53;;;10.53;;
81648;SDS011;71057;51.436;6.768;2024-01-11T14:04:49;17.60;;;11.70;;
81648;SDS011;71057;51.436;6.768;2024-01-11T14:07:14;18.33;;;11.63;;
81648;SDS011;71057;51.436;6.768;2024-01-11T14:09:39;17.60;;;11.10;;
81648;SDS011;71057;51.436;6.768;2024-01-11T14:12:05;18.77;;;13.13;;
81648;SDS011;71057;51.436;6.768;2024-01-11T14:14:30;17.65;;;10.98;;
81648;SDS011;71057;51.436;6.768;2024-01-11T14:16:55;21.40;;;12.07;;